createdAt,value
2023-02-14T00:00:38.169Z,77.21
2023-02-14T00:01:39.611Z,77.00
2023-02-14T00:02:41.088Z,76.01
2023-02-14T00:03:42.586Z,76.91
2023-02-14T00:04:45.882Z,78.07
2023-02-14T00:05:47.510Z,77.44
2023-02-14T00:06:49.407Z,77.74
2023-02-14T00:07:50.919Z,76.89
2023-02-14T00:08:54.136Z,77.77
2023-02-14T00:09:55.567Z,77.44
2023-02-14T00:10:57.296Z,77.04
2023-02-14T00:11:59.030Z,77.21
2023-02-14T00:13:00.487Z,77.19
2023-02-14T00:14:20.477Z,76.66
2023-02-14T00:15:25.363Z,77.24
2023-02-14T00:16:27.171Z,78.00
2023-02-14T00:17:28.687Z,77.38
2023-02-14T00:18:48.744Z,77.71
2023-02-14T00:19:50.539Z,78.01
2023-02-14T00:20:52.046Z,76.82
2023-02-14T00:21:53.772Z,76.95
2023-02-14T00:22:55.251Z,77.29
2023-02-14T00:23:56.664Z,77.58
2023-02-14T00:24:58.142Z,76.84
2023-02-14T00:25:59.555Z,76.90
2023-02-14T00:27:01.708Z,77.21
2023-02-14T00:28:03.129Z,76.57
2023-02-14T00:29:09.325Z,75.83
2023-02-14T00:30:13.308Z,76.30
2023-02-14T00:31:14.870Z,76.84
2023-02-14T00:32:16.381Z,76.27
2023-02-14T00:33:17.813Z,76.23
2023-02-14T00:34:19.898Z,76.51
2023-02-14T00:35:21.353Z,76.60
2023-02-14T00:36:22.846Z,78.89
2023-02-14T00:37:25.111Z,79.69
2023-02-14T00:38:26.523Z,80.74
2023-02-14T00:39:27.962Z,80.48
2023-02-14T00:40:29.542Z,80.97
2023-02-14T00:41:31.239Z,80.37
2023-02-14T00:42:32.730Z,80.42
2023-02-14T00:43:34.219Z,80.78
2023-02-14T00:44:35.645Z,80.36
2023-02-14T00:45:37.095Z,81.13
2023-02-14T00:46:38.725Z,81.30
2023-02-14T00:47:40.209Z,81.08
2023-02-14T00:48:42.054Z,80.07
2023-02-14T00:49:43.534Z,79.70
2023-02-14T00:50:46.263Z,80.16
2023-02-14T00:51:47.735Z,79.57
2023-02-14T00:52:49.176Z,79.61
2023-02-14T00:53:51.216Z,79.13
2023-02-14T00:54:52.640Z,79.43
2023-02-14T00:55:54.057Z,79.90
2023-02-14T00:56:55.483Z,80.71
2023-02-14T00:57:57.474Z,80.55
2023-02-14T00:58:59.252Z,81.02
2023-02-14T01:00:00.696Z,80.43
2023-02-14T01:01:02.645Z,79.47
2023-02-14T01:02:04.620Z,79.79
2023-02-14T01:03:06.061Z,79.67
2023-02-14T01:04:07.927Z,79.66
2023-02-14T01:05:09.376Z,78.51
2023-02-14T01:06:10.905Z,78.47
2023-02-14T01:07:12.463Z,78.24
2023-02-14T01:08:14.537Z,77.97
2023-02-14T01:09:15.979Z,78.84
2023-02-14T01:10:17.657Z,79.39
2023-02-14T01:11:21.949Z,79.57
2023-02-14T01:12:23.374Z,79.11
2023-02-14T01:13:25.206Z,78.46
2023-02-14T01:14:26.621Z,78.41
2023-02-14T01:15:29.045Z,78.03
2023-02-14T01:16:30.888Z,77.48
2023-02-14T01:17:32.429Z,77.72
2023-02-14T01:18:34.827Z,77.54
2023-02-14T01:19:36.691Z,77.36
2023-02-14T01:20:38.598Z,76.83
2023-02-14T01:21:40.120Z,77.64
2023-02-14T01:22:42.652Z,77.42
2023-02-14T01:23:45.114Z,77.88
2023-02-14T01:24:46.537Z,78.13
2023-02-14T01:25:48.002Z,78.93
2023-02-14T01:26:49.463Z,80.44
2023-02-14T01:27:51.326Z,80.81
2023-02-14T01:28:53.436Z,80.91
2023-02-14T01:29:54.868Z,80.51
2023-02-14T01:30:56.295Z,80.06
2023-02-14T01:31:57.776Z,80.11
2023-02-14T01:32:59.350Z,81.30
2023-02-14T01:34:01.653Z,80.60
2023-02-14T01:35:03.286Z,80.75
2023-02-14T01:36:05.041Z,80.75
2023-02-14T01:37:06.446Z,80.37
2023-02-14T01:38:07.845Z,80.86
2023-02-14T01:39:14.667Z,80.70
2023-02-14T01:40:16.307Z,80.72
2023-02-14T01:41:18.365Z,81.59
2023-02-14T01:42:19.888Z,81.11
2023-02-14T01:43:21.343Z,81.51
2023-02-14T01:44:25.776Z,81.91
2023-02-14T01:45:28.225Z,81.17
2023-02-14T01:46:32.972Z,80.57
2023-02-14T01:47:40.278Z,80.44
2023-02-14T01:48:41.853Z,80.82
2023-02-14T01:49:52.142Z,81.70
2023-02-14T01:50:54.791Z,81.69
2023-02-14T01:52:04.438Z,82.38
2023-02-14T01:53:16.051Z,81.30
2023-02-14T01:54:20.039Z,81.11
2023-02-14T01:55:25.362Z,80.87
2023-02-14T01:56:41.068Z,80.15
2023-02-14T01:58:04.009Z,79.89
2023-02-14T01:59:11.653Z,80.15
2023-02-14T02:00:32.358Z,79.86
2023-02-14T02:01:34.051Z,78.91
2023-02-14T02:02:35.762Z,78.68
2023-02-14T02:03:41.816Z,78.82
2023-02-14T02:04:46.930Z,78.36
2023-02-14T02:05:52.152Z,79.33
2023-02-14T02:07:00.139Z,79.91
2023-02-14T02:08:01.971Z,80.07
2023-02-14T02:09:20.413Z,80.62
2023-02-14T02:10:21.994Z,80.51
2023-02-14T02:11:23.526Z,80.81
2023-02-14T02:12:25.004Z,80.93
2023-02-14T02:13:26.466Z,80.69
2023-02-14T02:14:28.529Z,80.57
2023-02-14T02:15:35.720Z,80.85
2023-02-14T02:16:52.222Z,79.86
2023-02-14T02:18:19.141Z,81.02
2023-02-14T02:19:58.614Z,80.61
2023-02-14T02:21:37.792Z,80.86
2023-02-14T02:23:18.104Z,80.27
2023-02-14T02:24:35.187Z,80.10
2023-02-14T02:25:58.466Z,79.70
2023-02-14T02:27:25.800Z,79.85
2023-02-14T02:29:01.738Z,79.69
2023-02-14T02:30:28.282Z,80.25
2023-02-14T02:31:48.300Z,79.60
2023-02-14T02:32:49.712Z,80.20
2023-02-14T02:34:27.196Z,80.71
2023-02-14T02:35:43.700Z,80.41
2023-02-14T02:37:03.811Z,80.38
2023-02-14T02:38:50.352Z,80.09
2023-02-14T02:40:04.792Z,80.06
2023-02-14T02:41:18.367Z,80.30
2023-02-14T02:42:50.621Z,80.71
2023-02-14T02:44:10.685Z,81.31
2023-02-14T02:45:35.883Z,80.69
2023-02-14T02:46:49.292Z,80.62
2023-02-14T02:47:53.687Z,79.58
2023-02-14T02:49:05.072Z,79.41
2023-02-14T02:50:44.278Z,79.91
2023-02-14T02:52:12.897Z,80.96
2023-02-14T02:54:01.479Z,81.43
2023-02-14T02:55:11.656Z,81.45
2023-02-14T02:56:43.019Z,82.73
2023-02-14T02:57:46.871Z,82.78
2023-02-14T02:58:57.223Z,82.67
2023-02-14T02:59:59.763Z,81.37
2023-02-14T03:01:06.706Z,80.85
2023-02-14T03:02:18.430Z,80.28
2023-02-14T03:03:42.362Z,80.44
2023-02-14T03:04:57.032Z,79.63
2023-02-14T03:05:58.861Z,79.31
2023-02-14T03:07:00.716Z,78.99
2023-02-14T03:08:03.954Z,78.87
2023-02-14T03:09:33.083Z,78.24
2023-02-14T03:10:38.126Z,78.92
2023-02-14T03:12:05.447Z,77.84
2023-02-14T03:13:25.457Z,77.74
2023-02-14T03:14:39.637Z,77.68
2023-02-14T03:15:52.583Z,78.42
2023-02-14T03:17:05.409Z,78.88
2023-02-14T03:18:43.789Z,78.33
2023-02-14T03:20:17.878Z,79.36
2023-02-14T03:21:31.428Z,80.58
2023-02-14T03:22:54.040Z,80.49
2023-02-14T03:24:33.230Z,82.19
2023-02-14T03:25:49.648Z,82.81
2023-02-14T03:27:06.828Z,82.41
2023-02-14T03:28:22.797Z,82.39
2023-02-14T03:29:37.105Z,81.80
2023-02-14T03:30:50.871Z,81.13
2023-02-14T03:32:31.305Z,80.52
2023-02-14T03:33:44.801Z,80.29
2023-02-14T03:35:04.275Z,80.11
2023-02-14T03:36:36.283Z,79.78
2023-02-14T03:38:00.483Z,79.13
2023-02-14T03:39:08.576Z,78.93
2023-02-14T03:40:25.138Z,79.30
2023-02-14T03:41:31.606Z,78.38
2023-02-14T03:42:56.213Z,79.17
2023-02-14T03:44:00.869Z,78.78
2023-02-14T03:45:06.216Z,78.22
2023-02-14T03:46:15.754Z,78.47
2023-02-14T03:47:22.369Z,78.67
2023-02-14T03:48:27.340Z,78.71
2023-02-14T03:49:33.966Z,79.30
2023-02-14T03:50:38.174Z,79.37
2023-02-14T03:51:42.630Z,77.81
2023-02-14T03:52:45.770Z,77.74
2023-02-14T03:53:52.085Z,77.53
2023-02-14T03:54:57.524Z,77.14
2023-02-14T03:56:27.125Z,77.33
2023-02-14T03:57:40.456Z,77.93
2023-02-14T03:58:47.162Z,77.02
2023-02-14T03:59:49.011Z,76.79
2023-02-14T04:00:55.072Z,76.98
2023-02-14T04:02:15.341Z,77.00
2023-02-14T04:03:18.673Z,76.36
2023-02-14T04:04:24.126Z,76.08
2023-02-14T04:05:27.898Z,76.18
2023-02-14T04:06:29.443Z,76.84
2023-02-14T04:07:30.929Z,76.56
2023-02-14T04:08:32.465Z,77.15
2023-02-14T04:09:33.874Z,77.51
2023-02-14T04:10:35.666Z,77.66
2023-02-14T04:11:39.026Z,76.75
2023-02-14T04:12:40.550Z,76.55
2023-02-14T04:13:41.997Z,76.25
2023-02-14T04:14:43.478Z,75.88
2023-02-14T04:15:45.070Z,76.30
2023-02-14T04:17:05.156Z,76.35
2023-02-14T04:18:25.100Z,76.12
2023-02-14T04:19:26.642Z,77.06
2023-02-14T04:20:28.878Z,78.03
2023-02-14T04:21:30.330Z,77.99
2023-02-14T04:22:31.762Z,78.58
2023-02-14T04:23:33.216Z,78.26
2023-02-14T04:24:34.653Z,77.78
2023-02-14T04:25:36.261Z,78.03
2023-02-14T04:26:37.732Z,77.17
2023-02-14T04:27:39.341Z,77.05
2023-02-14T04:28:40.817Z,77.66
2023-02-14T04:29:49.882Z,77.06
2023-02-14T04:30:51.412Z,78.38
2023-02-14T04:31:52.982Z,78.58
2023-02-14T04:32:54.504Z,78.67
2023-02-14T04:33:56.033Z,77.72
2023-02-14T04:34:57.444Z,78.41
2023-02-14T04:36:00.129Z,77.88
2023-02-14T04:37:01.741Z,78.15
2023-02-14T04:38:04.186Z,78.30
2023-02-14T04:39:05.611Z,78.00
2023-02-14T04:40:07.727Z,78.26
2023-02-14T04:41:09.197Z,79.48
2023-02-14T04:42:10.906Z,79.69
2023-02-14T04:43:12.371Z,80.06
2023-02-14T04:44:14.181Z,80.12
2023-02-14T04:45:15.704Z,80.01
2023-02-14T04:46:17.208Z,80.25
2023-02-14T04:47:18.809Z,80.30
2023-02-14T04:48:20.349Z,79.77
2023-02-14T04:49:21.969Z,79.28
2023-02-14T04:50:23.532Z,79.51
2023-02-14T04:51:27.354Z,80.80
2023-02-14T04:52:29.155Z,80.01
2023-02-14T04:53:30.584Z,78.71
2023-02-14T04:54:33.315Z,78.45
2023-02-14T04:55:34.758Z,77.98
2023-02-14T04:56:36.240Z,77.88
2023-02-14T04:57:37.815Z,77.99
2023-02-14T04:58:39.303Z,77.76
2023-02-14T04:59:40.718Z,78.54
2023-02-14T05:00:42.168Z,77.82
2023-02-14T05:01:43.679Z,77.31
2023-02-14T05:02:45.208Z,78.00
2023-02-14T05:03:46.746Z,78.13
2023-02-14T05:04:49.760Z,77.80
2023-02-14T05:05:51.622Z,78.08
2023-02-14T05:06:53.114Z,77.27
2023-02-14T05:07:54.531Z,78.12
2023-02-14T05:08:56.755Z,77.85
2023-02-14T05:09:58.408Z,77.45
2023-02-14T05:11:00.136Z,78.41
2023-02-14T05:12:01.806Z,78.63
2023-02-14T05:13:03.304Z,78.29
2023-02-14T05:14:04.933Z,78.25
2023-02-14T05:15:06.626Z,77.87
2023-02-14T05:16:08.182Z,77.78
2023-02-14T05:17:09.856Z,78.49
2023-02-14T05:18:11.258Z,79.21
2023-02-14T05:19:13.232Z,80.99
2023-02-14T05:20:14.887Z,81.34
2023-02-14T05:21:16.339Z,81.17
2023-02-14T05:22:18.608Z,81.82
2023-02-14T05:23:21.257Z,81.65
2023-02-14T05:24:22.751Z,82.20
2023-02-14T05:25:24.194Z,82.61
2023-02-14T05:26:25.811Z,82.47
2023-02-14T05:27:27.608Z,82.63
2023-02-14T05:28:29.050Z,82.99
2023-02-14T05:29:30.469Z,82.67
2023-02-14T05:30:32.361Z,82.48
2023-02-14T05:31:33.946Z,81.59
2023-02-14T05:32:35.512Z,81.44
2023-02-14T05:33:36.990Z,81.02
2023-02-14T05:34:38.408Z,81.83
2023-02-14T05:35:39.852Z,82.48
2023-02-14T05:36:41.285Z,82.29
2023-02-14T05:37:42.717Z,81.85
2023-02-14T05:38:44.436Z,81.37
2023-02-14T05:39:45.904Z,80.88
2023-02-14T05:40:47.362Z,81.06
2023-02-14T05:41:48.781Z,80.38
2023-02-14T05:42:52.309Z,80.24
2023-02-14T05:43:53.752Z,80.14
2023-02-14T05:44:55.186Z,80.39
2023-02-14T05:45:57.817Z,79.94
2023-02-14T05:46:59.674Z,79.19
2023-02-14T05:48:01.467Z,80.45
2023-02-14T05:49:03.502Z,79.80
2023-02-14T05:50:06.269Z,79.43
2023-02-14T05:51:10.611Z,79.75
2023-02-14T05:52:12.063Z,80.61
2023-02-14T05:53:13.973Z,80.26
2023-02-14T05:54:15.619Z,79.95
2023-02-14T05:55:17.185Z,79.76
2023-02-14T05:56:18.600Z,79.66
2023-02-14T05:57:20.118Z,79.76
2023-02-14T05:58:21.520Z,79.28
2023-02-14T05:59:22.960Z,79.63
2023-02-14T06:00:24.922Z,81.28
2023-02-14T06:01:26.383Z,81.95
2023-02-14T06:02:27.881Z,81.91
2023-02-14T06:03:29.333Z,81.32
2023-02-14T06:04:30.816Z,81.19
2023-02-14T06:05:32.251Z,80.92
2023-02-14T06:06:36.283Z,82.18
2023-02-14T06:07:38.151Z,81.94
2023-02-14T06:08:39.604Z,81.74
2023-02-14T06:09:41.055Z,81.61
2023-02-14T06:10:42.582Z,80.75
2023-02-14T06:11:44.414Z,80.00
2023-02-14T06:12:48.318Z,80.19
2023-02-14T06:13:49.814Z,79.97
2023-02-14T06:14:51.243Z,79.23
2023-02-14T06:15:52.687Z,79.12
2023-02-14T06:16:54.364Z,79.93
2023-02-14T06:17:57.025Z,79.52
2023-02-14T06:18:58.478Z,80.79
2023-02-14T06:19:59.909Z,81.04
2023-02-14T06:21:01.637Z,80.57
2023-02-14T06:22:04.028Z,79.78
2023-02-14T06:23:05.516Z,79.79
2023-02-14T06:24:07.082Z,79.84
2023-02-14T06:25:08.490Z,80.22
2023-02-14T06:26:09.979Z,80.14
2023-02-14T06:27:11.416Z,80.66
2023-02-14T06:28:12.880Z,80.82
2023-02-14T06:29:17.375Z,79.81
2023-02-14T06:30:19.246Z,80.78
2023-02-14T06:31:21.326Z,81.86
2023-02-14T06:32:23.211Z,82.28
2023-02-14T06:33:24.709Z,82.59
2023-02-14T06:34:26.194Z,82.00
2023-02-14T06:35:27.654Z,82.54
2023-02-14T06:36:29.397Z,81.78
2023-02-14T06:37:33.637Z,82.37
2023-02-14T06:38:35.088Z,82.23
2023-02-14T06:39:36.603Z,81.77
2023-02-14T06:40:38.028Z,81.24
2023-02-14T06:41:39.473Z,81.68
2023-02-14T06:42:41.002Z,82.47
2023-02-14T06:43:43.650Z,83.16
2023-02-14T06:44:45.107Z,82.83
2023-02-14T06:45:46.916Z,82.13
2023-02-14T06:46:48.381Z,82.50
2023-02-14T06:47:49.858Z,83.21
2023-02-14T06:48:51.342Z,82.73
2023-02-14T06:49:52.764Z,82.39
2023-02-14T06:50:54.498Z,81.73
2023-02-14T06:51:55.978Z,82.35
2023-02-14T06:52:57.456Z,82.48
2023-02-14T06:53:58.896Z,82.54
2023-02-14T06:55:00.360Z,82.49
2023-02-14T06:56:02.202Z,82.73
2023-02-14T06:57:03.934Z,82.41
2023-02-14T06:58:05.432Z,81.62
2023-02-14T06:59:06.951Z,81.69
2023-02-14T07:00:10.259Z,82.68
2023-02-14T07:01:12.144Z,82.63
2023-02-14T07:02:13.673Z,82.55
2023-02-14T07:03:15.786Z,82.77
2023-02-14T07:04:17.786Z,83.80
2023-02-14T07:05:19.318Z,84.06
2023-02-14T07:06:21.211Z,84.34
2023-02-14T07:07:22.629Z,84.41
2023-02-14T07:08:26.160Z,84.20
2023-02-14T07:09:27.738Z,84.80
2023-02-14T07:10:29.171Z,84.89
2023-02-14T07:11:30.656Z,84.28
2023-02-14T07:12:32.157Z,83.88
2023-02-14T07:13:33.594Z,84.35
2023-02-14T07:14:35.108Z,84.64
2023-02-14T07:15:36.560Z,83.86
2023-02-14T07:16:38.017Z,83.81
2023-02-14T07:17:39.835Z,83.58
2023-02-14T07:18:41.386Z,83.70
2023-02-14T07:19:42.791Z,82.92
2023-02-14T07:20:45.077Z,82.25
2023-02-14T07:21:46.492Z,82.00
2023-02-14T07:22:48.012Z,81.46
2023-02-14T07:23:50.173Z,81.13
2023-02-14T07:24:51.627Z,81.51
2023-02-14T07:25:53.117Z,80.84
2023-02-14T07:26:54.584Z,80.80
2023-02-14T07:27:56.002Z,80.33
2023-02-14T07:28:57.459Z,80.70
2023-02-14T07:29:59.291Z,79.95
2023-02-14T07:31:01.824Z,79.96
2023-02-14T07:32:03.733Z,80.28
2023-02-14T07:33:05.409Z,79.68
2023-02-14T07:34:06.829Z,79.46
2023-02-14T07:35:08.814Z,79.18
2023-02-14T07:36:10.516Z,78.92
2023-02-14T07:37:11.905Z,78.99
2023-02-14T07:38:13.378Z,78.75
2023-02-14T07:39:14.812Z,78.04
2023-02-14T07:40:16.479Z,78.29
2023-02-14T07:41:17.985Z,77.50
2023-02-14T07:42:19.453Z,77.74
2023-02-14T07:43:20.870Z,77.96
2023-02-14T07:44:22.485Z,79.19
2023-02-14T07:45:25.116Z,79.46
2023-02-14T07:46:26.653Z,78.72
2023-02-14T07:47:28.162Z,78.47
2023-02-14T07:48:31.945Z,78.32
2023-02-14T07:49:35.892Z,78.68
2023-02-14T07:50:37.693Z,79.26
2023-02-14T07:51:39.305Z,79.67
2023-02-14T07:52:40.739Z,79.47
2023-02-14T07:53:42.217Z,79.10
2023-02-14T07:54:43.755Z,79.39
2023-02-14T07:55:50.347Z,80.91
2023-02-14T07:56:51.861Z,81.57
2023-02-14T07:57:53.329Z,82.50
2023-02-14T07:58:54.922Z,83.10
2023-02-14T07:59:56.367Z,83.16
2023-02-14T08:00:58.291Z,83.00
2023-02-14T08:01:59.977Z,82.70
2023-02-14T08:03:01.509Z,82.69
2023-02-14T08:04:03.112Z,82.37
2023-02-14T08:05:04.978Z,81.83
2023-02-14T08:06:06.479Z,81.35
2023-02-14T08:07:07.980Z,81.61
2023-02-14T08:08:09.529Z,81.40
2023-02-14T08:09:11.240Z,81.99
2023-02-14T08:10:13.272Z,81.24
2023-02-14T08:11:35.282Z,81.42
2023-02-14T08:12:55.350Z,81.48
2023-02-14T08:13:56.791Z,82.64
2023-02-14T08:15:18.250Z,82.66
2023-02-14T08:16:19.720Z,81.67
2023-02-14T08:17:21.184Z,81.04
2023-02-14T08:18:23.240Z,81.16
2023-02-14T08:19:24.714Z,80.81
2023-02-14T08:20:26.337Z,79.61
2023-02-14T08:21:28.244Z,79.80
2023-02-14T08:22:29.682Z,79.63
2023-02-14T08:23:31.772Z,79.65
2023-02-14T08:24:33.229Z,79.76
2023-02-14T08:25:34.758Z,79.83
2023-02-14T08:26:36.574Z,79.21
2023-02-14T08:27:37.989Z,80.09
2023-02-14T08:28:39.408Z,80.65
2023-02-14T08:29:40.825Z,80.63
2023-02-14T08:30:44.381Z,79.94
2023-02-14T08:31:47.472Z,80.09
2023-02-14T08:32:49.168Z,80.20
2023-02-14T08:33:50.657Z,80.11
2023-02-14T08:34:52.400Z,80.02
2023-02-14T08:35:53.978Z,79.89
2023-02-14T08:36:55.491Z,78.89
2023-02-14T08:37:56.978Z,78.88
2023-02-14T08:38:58.547Z,79.68
2023-02-14T08:40:00.063Z,79.10
2023-02-14T08:41:04.402Z,79.47
2023-02-14T08:42:07.294Z,79.28
2023-02-14T08:43:09.689Z,79.42
2023-02-14T08:44:11.543Z,78.72
2023-02-14T08:45:12.980Z,79.40
2023-02-14T08:46:15.102Z,78.54
2023-02-14T08:47:16.539Z,79.57
2023-02-14T08:48:18.018Z,79.31
2023-02-14T08:49:19.398Z,78.38
2023-02-14T08:50:21.525Z,78.54
2023-02-14T08:51:23.894Z,79.32
2023-02-14T08:52:25.354Z,80.10
2023-02-14T08:53:26.776Z,81.23
2023-02-14T08:54:28.155Z,81.29
2023-02-14T08:55:29.914Z,81.81
2023-02-14T08:56:31.373Z,81.46
2023-02-14T08:57:33.090Z,81.36
2023-02-14T08:58:38.670Z,80.85
2023-02-14T08:59:40.084Z,81.07
2023-02-14T09:00:41.585Z,81.75
2023-02-14T09:01:43.080Z,81.61
2023-02-14T09:02:44.489Z,81.64
2023-02-14T09:03:45.988Z,80.85
2023-02-14T09:04:47.465Z,81.47
2023-02-14T09:05:48.890Z,82.21
2023-02-14T09:06:50.628Z,82.81
2023-02-14T09:07:52.838Z,82.76
2023-02-14T09:08:55.235Z,81.92
2023-02-14T09:09:56.815Z,81.13
2023-02-14T09:10:58.821Z,80.67
2023-02-14T09:12:04.820Z,80.33
2023-02-14T09:13:06.286Z,80.08
2023-02-14T09:14:07.813Z,80.16
2023-02-14T09:15:11.292Z,79.51
2023-02-14T09:16:16.510Z,79.47
2023-02-14T09:17:18.273Z,79.22
2023-02-14T09:18:19.724Z,79.03
2023-02-14T09:19:21.221Z,80.00
2023-02-14T09:20:23.282Z,80.60
2023-02-14T09:21:27.124Z,80.08
2023-02-14T09:22:28.620Z,81.19
2023-02-14T09:23:30.056Z,81.19
2023-02-14T09:24:33.749Z,82.46
2023-02-14T09:25:35.172Z,83.05
2023-02-14T09:26:38.854Z,83.36
2023-02-14T09:27:40.382Z,82.36
2023-02-14T09:28:42.251Z,82.98
2023-02-14T09:29:44.008Z,82.81
2023-02-14T09:30:45.535Z,81.77
2023-02-14T09:31:47.122Z,81.58
2023-02-14T09:32:50.788Z,82.57
2023-02-14T09:34:10.893Z,83.60
2023-02-14T09:35:12.838Z,82.49
2023-02-14T09:36:14.410Z,81.93
2023-02-14T09:37:34.105Z,81.29
2023-02-14T09:38:35.580Z,81.12
2023-02-14T09:39:37.603Z,80.50
2023-02-14T09:40:39.184Z,79.93
2023-02-14T09:41:52.262Z,79.17
2023-02-14T09:43:02.797Z,78.39
2023-02-14T09:44:24.936Z,78.39
2023-02-14T09:45:29.035Z,78.46
2023-02-14T09:46:37.411Z,78.09
2023-02-14T09:47:47.517Z,78.42
2023-02-14T09:48:49.794Z,78.74
2023-02-14T09:49:53.388Z,78.92
2023-02-14T09:51:00.246Z,79.81
2023-02-14T09:52:04.463Z,81.31
2023-02-14T09:53:55.349Z,81.63
2023-02-14T09:55:01.310Z,81.67
2023-02-14T09:56:25.005Z,81.67
2023-02-14T09:57:42.828Z,81.42
2023-02-14T09:58:53.713Z,81.21
2023-02-14T10:00:12.716Z,80.27
2023-02-14T10:01:29.059Z,80.52
2023-02-14T10:02:53.620Z,80.68
2023-02-14T10:04:11.556Z,80.08
2023-02-14T10:05:38.586Z,80.58
2023-02-14T10:06:51.454Z,80.03
2023-02-14T10:08:00.469Z,80.56
2023-02-14T10:09:17.064Z,80.96
2023-02-14T10:10:40.243Z,81.00
2023-02-14T10:11:45.477Z,81.06
2023-02-14T10:13:01.839Z,81.69
2023-02-14T10:14:16.080Z,82.05
2023-02-14T10:15:23.721Z,81.31
2023-02-14T10:16:43.125Z,81.26
2023-02-14T10:17:54.701Z,80.63
2023-02-14T10:19:03.166Z,80.78
2023-02-14T10:20:16.678Z,81.44
2023-02-14T10:21:32.487Z,81.34
2023-02-14T10:22:50.382Z,80.64
2023-02-14T10:24:01.918Z,80.78
2023-02-14T10:25:13.481Z,80.80
2023-02-14T10:26:22.732Z,81.15
2023-02-14T10:27:24.312Z,80.27
2023-02-14T10:28:32.270Z,79.36
2023-02-14T10:29:33.670Z,79.70
2023-02-14T10:30:39.688Z,80.09
2023-02-14T10:31:44.461Z,82.09
2023-02-14T10:33:11.174Z,81.55
2023-02-14T10:34:28.164Z,81.65
2023-02-14T10:35:43.470Z,81.34
2023-02-14T10:37:02.847Z,80.57
2023-02-14T10:38:30.539Z,81.41
2023-02-14T10:39:50.262Z,81.49
2023-02-14T10:41:20.732Z,82.47
2023-02-14T10:42:57.004Z,83.23
2023-02-14T10:44:13.593Z,82.53
2023-02-14T10:45:49.396Z,82.43
2023-02-14T10:46:53.598Z,81.32
2023-02-14T10:48:32.586Z,80.77
2023-02-14T10:49:47.416Z,80.94
2023-02-14T10:50:58.988Z,79.99
2023-02-14T10:52:08.090Z,79.41
2023-02-14T10:53:37.412Z,78.30
2023-02-14T10:54:43.029Z,77.79
2023-02-14T10:55:54.943Z,77.76
2023-02-14T10:57:04.551Z,77.74
2023-02-14T10:58:09.028Z,77.93
2023-02-14T10:59:45.937Z,78.28
2023-02-14T11:00:59.824Z,77.84
2023-02-14T11:02:02.084Z,77.58
2023-02-14T11:03:08.089Z,77.50
2023-02-14T11:04:12.718Z,77.24
2023-02-14T11:05:31.415Z,76.92
2023-02-14T11:06:33.385Z,76.71
2023-02-14T11:07:34.856Z,76.98
2023-02-14T11:08:41.512Z,77.04
2023-02-14T11:09:43.673Z,76.84
2023-02-14T11:10:45.747Z,76.02
2023-02-14T11:12:00.263Z,76.67
2023-02-14T11:13:01.747Z,76.82
2023-02-14T11:14:22.034Z,76.62
2023-02-14T11:15:34.019Z,76.49
2023-02-14T11:16:37.369Z,76.45
2023-02-14T11:17:39.023Z,76.44
2023-02-14T11:18:41.249Z,75.61
2023-02-14T11:19:55.515Z,75.90
2023-02-14T11:21:02.721Z,76.21
2023-02-14T11:22:04.750Z,76.34
2023-02-14T11:23:20.423Z,76.15
2023-02-14T11:24:28.048Z,76.23
2023-02-14T11:25:31.746Z,75.93
2023-02-14T11:26:35.128Z,76.71
2023-02-14T11:27:37.880Z,76.40
2023-02-14T11:28:49.451Z,76.37
2023-02-14T11:29:53.746Z,76.09
2023-02-14T11:30:55.447Z,76.08
2023-02-14T11:32:06.838Z,75.89
2023-02-14T11:33:22.397Z,76.52
2023-02-14T11:34:30.240Z,77.13
2023-02-14T11:35:35.491Z,76.36
2023-02-14T11:36:42.160Z,76.64
2023-02-14T11:37:50.460Z,76.24
2023-02-14T11:39:32.118Z,75.59
2023-02-14T11:40:36.645Z,75.90
2023-02-14T11:41:49.837Z,75.46
2023-02-14T11:42:54.665Z,75.34
2023-02-14T11:44:16.029Z,74.83
2023-02-14T11:45:38.433Z,74.45
2023-02-14T11:46:53.086Z,74.48
2023-02-14T11:48:36.585Z,74.75
2023-02-14T11:49:39.046Z,73.85
2023-02-14T11:50:42.568Z,73.87
2023-02-14T11:51:45.425Z,73.85
2023-02-14T11:52:53.122Z,73.98
2023-02-14T11:54:00.566Z,74.17
2023-02-14T11:55:02.123Z,74.46
2023-02-14T11:56:03.864Z,74.29
2023-02-14T11:57:08.080Z,74.35
2023-02-14T11:58:27.861Z,74.00
2023-02-14T11:59:32.526Z,73.07
2023-02-14T12:00:35.116Z,72.77
2023-02-14T12:01:40.812Z,73.18
2023-02-14T12:02:51.605Z,73.61
2023-02-14T12:03:56.178Z,73.85
2023-02-14T12:05:01.705Z,74.15
2023-02-14T12:06:03.300Z,73.71
2023-02-14T12:07:18.954Z,73.17
2023-02-14T12:08:26.688Z,72.41
2023-02-14T12:09:30.615Z,72.35
2023-02-14T12:10:35.163Z,72.53
2023-02-14T12:11:37.725Z,72.56
2023-02-14T12:12:56.337Z,72.97
2023-02-14T12:13:58.271Z,72.86
2023-02-14T12:15:23.995Z,73.88
2023-02-14T12:16:34.638Z,73.11
2023-02-14T12:17:39.080Z,73.29
2023-02-14T12:18:47.146Z,73.12
2023-02-14T12:20:09.483Z,72.64
2023-02-14T12:21:25.983Z,72.45
2023-02-14T12:22:36.413Z,72.17
2023-02-14T12:23:49.189Z,72.49
2023-02-14T12:24:54.081Z,72.54
2023-02-14T12:26:41.461Z,72.41
2023-02-14T12:27:53.416Z,72.88
2023-02-14T12:29:20.592Z,73.55
2023-02-14T12:30:24.033Z,73.48
2023-02-14T12:31:25.632Z,73.62
2023-02-14T12:32:29.623Z,73.42
2023-02-14T12:33:31.214Z,73.50
2023-02-14T12:34:33.870Z,73.07
2023-02-14T12:35:54.797Z,72.51
2023-02-14T12:37:26.109Z,71.70
2023-02-14T12:38:57.767Z,71.90
2023-02-14T12:40:05.516Z,72.07
2023-02-14T12:41:09.882Z,72.47
2023-02-14T12:42:45.334Z,72.20
2023-02-14T12:43:57.383Z,73.67
2023-02-14T12:45:04.032Z,73.72
2023-02-14T12:46:29.634Z,73.88
2023-02-14T12:47:49.958Z,73.50
2023-02-14T12:49:24.839Z,73.23
2023-02-14T12:50:52.992Z,72.96
2023-02-14T12:52:09.790Z,72.74
2023-02-14T12:53:38.008Z,72.69
2023-02-14T12:54:39.575Z,72.92
2023-02-14T12:55:56.266Z,72.70
2023-02-14T12:57:11.824Z,72.46
2023-02-14T12:58:27.045Z,72.40
2023-02-14T12:59:40.897Z,71.89
2023-02-14T13:00:48.116Z,71.98
2023-02-14T13:02:24.399Z,71.73
2023-02-14T13:03:25.796Z,71.54
2023-02-14T13:04:46.498Z,71.29
2023-02-14T13:06:28.255Z,71.60
2023-02-14T13:07:43.416Z,70.98
2023-02-14T13:09:05.038Z,70.81
2023-02-14T13:10:25.398Z,70.38
2023-02-14T13:11:46.782Z,70.35
2023-02-14T13:13:02.078Z,70.09
2023-02-14T13:14:29.608Z,69.29
2023-02-14T13:15:48.109Z,69.13
2023-02-14T13:16:55.173Z,69.94
2023-02-14T13:18:38.823Z,69.46
2023-02-14T13:20:11.124Z,69.13
2023-02-14T13:21:17.703Z,68.70
2023-02-14T13:22:22.149Z,68.90
2023-02-14T13:23:40.463Z,67.95
2023-02-14T13:24:48.236Z,67.94
2023-02-14T13:25:56.950Z,67.98
2023-02-14T13:27:05.765Z,67.04
2023-02-14T13:28:13.028Z,68.42
2023-02-14T13:29:19.444Z,68.02
2023-02-14T13:30:32.314Z,68.26
2023-02-14T13:31:34.133Z,68.43
2023-02-14T13:32:40.509Z,68.60
2023-02-14T13:33:48.815Z,68.92
2023-02-14T13:34:50.743Z,68.64
2023-02-14T13:35:56.032Z,68.24
2023-02-14T13:36:59.434Z,68.48
2023-02-14T13:38:06.172Z,68.42
2023-02-14T13:39:12.282Z,68.54
2023-02-14T13:40:20.632Z,68.19
2023-02-14T13:41:24.107Z,68.90
2023-02-14T13:42:50.696Z,68.57
2023-02-14T13:43:58.086Z,68.10
2023-02-14T13:44:59.543Z,68.32
2023-02-14T13:46:01.046Z,68.06
2023-02-14T13:47:02.535Z,68.25
2023-02-14T13:48:12.650Z,67.73
2023-02-14T13:49:34.733Z,67.57
2023-02-14T13:50:40.035Z,67.61
2023-02-14T13:51:50.275Z,67.54
2023-02-14T13:52:51.798Z,67.45
2023-02-14T13:53:53.270Z,66.78
2023-02-14T13:55:03.256Z,66.27
2023-02-14T13:56:25.427Z,66.67
2023-02-14T13:57:36.667Z,66.87
2023-02-14T13:58:59.916Z,66.87
2023-02-14T14:00:19.610Z,66.31
2023-02-14T14:01:37.891Z,66.32
2023-02-14T14:02:56.019Z,66.72
2023-02-14T14:04:03.953Z,66.65
2023-02-14T14:05:30.620Z,66.70
2023-02-14T14:07:03.995Z,66.42
2023-02-14T14:08:20.596Z,67.09
2023-02-14T14:09:42.032Z,66.56
2023-02-14T14:10:51.434Z,66.62
2023-02-14T14:11:52.968Z,66.60
2023-02-14T14:12:54.408Z,66.77
2023-02-14T14:14:23.294Z,66.91
2023-02-14T14:15:24.910Z,66.83
2023-02-14T14:16:33.648Z,66.24
2023-02-14T14:17:42.870Z,65.95
2023-02-14T14:18:44.335Z,65.88
2023-02-14T14:19:47.098Z,66.14
2023-02-14T14:20:49.087Z,66.49
2023-02-14T14:22:09.977Z,66.04
2023-02-14T14:23:33.407Z,65.92
2023-02-14T14:24:51.009Z,65.13
2023-02-14T14:25:52.508Z,66.03
2023-02-14T14:27:06.203Z,65.94